sensor_id;sensor_type;location;lat;lon;timestamp;temperature;humidity
69084;SHT31;56185;48.526;9.044;2022-08-03T00:02:20;21.43;66.59
69084;SHT31;56185;48.526;9.044;2022-08-03T00:04:46;21.41;66.87
69084;SHT31;56185;48.526;9.044;2022-08-03T00:07:11;21.21;67.60
69084;SHT31;56185;48.526;9.044;2022-08-03T00:09:37;21.14;67.94
69084;SHT31;56185;48.526;9.044;2022-08-03T00:12:02;21.11;68.07
69084;SHT31;56185;48.526;9.044;2022-08-03T00:14:28;21.14;68.34
69084;SHT31;56185;48.526;9.044;2022-08-03T00:16:53;21.16;67.84
69084;SHT31;56185;48.526;9.044;2022-08-03T00:19:18;20.96;68.51
69084;SHT31;56185;48.526;9.044;2022-08-03T00:21:43;20.87;68.99
69084;SHT31;56185;48.526;9.044;2022-08-03T00:24:09;20.78;69.30
69084;SHT31;56185;48.526;9.044;2022-08-03T00:26:34;20.61;69.90
69084;SHT31;56185;48.526;9.044;2022-08-03T00:28:59;20.75;69.11
69084;SHT31;56185;48.526;9.044;2022-08-03T00:31:24;20.68;69.50
69084;SHT31;56185;48.526;9.044;2022-08-03T00:33:50;20.66;69.40
69084;SHT31;56185;48.526;9.044;2022-08-03T00:36:15;20.58;69.67
69084;SHT31;56185;48.526;9.044;2022-08-03T00:38:40;20.74;69.37
69084;SHT31;56185;48.526;9.044;2022-08-03T00:41:05;20.90;67.65
69084;SHT31;56185;48.526;9.044;2022-08-03T00:43:31;20.80;67.59
69084;SHT31;56185;48.526;9.044;2022-08-03T00:45:56;20.91;66.93
69084;SHT31;56185;48.526;9.044;2022-08-03T00:48:21;20.98;66.52
69084;SHT31;56185;48.526;9.044;2022-08-03T00:50:47;20.96;66.20
69084;SHT31;56185;48.526;9.044;2022-08-03T00:53:13;20.87;66.60
69084;SHT31;56185;48.526;9.044;2022-08-03T00:55:39;20.77;67.55
69084;SHT31;56185;48.526;9.044;2022-08-03T00:58:04;20.67;67.86
69084;SHT31;56185;48.526;9.044;2022-08-03T01:00:30;20.61;68.14
69084;SHT31;56185;48.526;9.044;2022-08-03T01:02:55;20.67;67.21
69084;SHT31;56185;48.526;9.044;2022-08-03T01:05:21;20.73;66.87
69084;SHT31;56185;48.526;9.044;2022-08-03T01:07:59;20.67;67.07
69084;SHT31;56185;48.526;9.044;2022-08-03T01:15:58;20.33;68.32
69084;SHT31;56185;48.526;9.044;2022-08-03T01:18:35;20.25;68.70
69084;SHT31;56185;48.526;9.044;2022-08-03T01:21:03;20.39;67.99
69084;SHT31;56185;48.526;9.044;2022-08-03T01:26:27;20.50;68.20
69084;SHT31;56185;48.526;9.044;2022-08-03T01:29:15;20.02;70.14
69084;SHT31;56185;48.526;9.044;2022-08-03T01:31:49;19.92;70.61
69084;SHT31;56185;48.526;9.044;2022-08-03T01:34:18;19.86;70.81
69084;SHT31;56185;48.526;9.044;2022-08-03T01:36:50;19.76;71.09
69084;SHT31;56185;48.526;9.044;2022-08-03T01:39:18;19.71;71.21
69084;SHT31;56185;48.526;9.044;2022-08-03T01:41:52;19.69;71.33
69084;SHT31;56185;48.526;9.044;2022-08-03T01:44:20;19.71;71.26
69084;SHT31;56185;48.526;9.044;2022-08-03T01:46:47;19.58;71.50
69084;SHT31;56185;48.526;9.044;2022-08-03T01:49:12;19.48;71.99
69084;SHT31;56185;48.526;9.044;2022-08-03T01:51:41;19.47;71.92
69084;SHT31;56185;48.526;9.044;2022-08-03T01:54:09;19.34;72.62
69084;SHT31;56185;48.526;9.044;2022-08-03T01:56:35;19.39;72.46
69084;SHT31;56185;48.526;9.044;2022-08-03T01:59:02;19.37;72.58
69084;SHT31;56185;48.526;9.044;2022-08-03T02:01:28;19.37;73.10
69084;SHT31;56185;48.526;9.044;2022-08-03T02:03:56;19.32;73.12
69084;SHT31;56185;48.526;9.044;2022-08-03T02:06:24;19.37;72.87
69084;SHT31;56185;48.526;9.044;2022-08-03T02:08:51;19.41;72.74
69084;SHT31;56185;48.526;9.044;2022-08-03T02:11:17;19.62;72.21
69084;SHT31;56185;48.526;9.044;2022-08-03T02:13:44;19.69;71.03
69084;SHT31;56185;48.526;9.044;2022-08-03T02:16:12;19.68;70.64
69084;SHT31;56185;48.526;9.044;2022-08-03T02:18:39;19.69;70.88
69084;SHT31;56185;48.526;9.044;2022-08-03T02:21:06;19.54;71.47
69084;SHT31;56185;48.526;9.044;2022-08-03T02:23:32;19.51;71.89
69084;SHT31;56185;48.526;9.044;2022-08-03T02:26:02;19.41;72.24
69084;SHT31;56185;48.526;9.044;2022-08-03T02:28:32;19.54;71.89
69084;SHT31;56185;48.526;9.044;2022-08-03T02:31:02;19.72;70.88
69084;SHT31;56185;48.526;9.044;2022-08-03T02:33:35;19.76;70.39
69084;SHT31;56185;48.526;9.044;2022-08-03T02:36:02;19.76;69.98
69084;SHT31;56185;48.526;9.044;2022-08-03T02:38:34;19.75;69.85
69084;SHT31;56185;48.526;9.044;2022-08-03T02:41:03;19.72;69.61
69084;SHT31;56185;48.526;9.044;2022-08-03T02:43:29;19.72;69.98
69084;SHT31;56185;48.526;9.044;2022-08-03T02:45:55;19.72;69.89
69084;SHT31;56185;48.526;9.044;2022-08-03T02:48:23;19.65;69.84
69084;SHT31;56185;48.526;9.044;2022-08-03T02:50:52;19.59;70.18
69084;SHT31;56185;48.526;9.044;2022-08-03T02:53:18;19.38;71.51
69084;SHT31;56185;48.526;9.044;2022-08-03T02:55:45;19.34;71.50
69084;SHT31;56185;48.526;9.044;2022-08-03T02:58:12;19.27;72.14
69084;SHT31;56185;48.526;9.044;2022-08-03T03:00:39;19.18;72.44
69084;SHT31;56185;48.526;9.044;2022-08-03T03:03:05;19.20;72.12
69084;SHT31;56185;48.526;9.044;2022-08-03T03:05:31;19.11;72.58
69084;SHT31;56185;48.526;9.044;2022-08-03T03:07:57;19.16;72.36
69084;SHT31;56185;48.526;9.044;2022-08-03T03:10:23;19.27;71.48
69084;SHT31;56185;48.526;9.044;2022-08-03T03:12:52;19.34;71.03
69084;SHT31;56185;48.526;9.044;2022-08-03T03:15:19;19.32;71.20
69084;SHT31;56185;48.526;9.044;2022-08-03T03:17:45;19.38;70.58
69084;SHT31;56185;48.526;9.044;2022-08-03T03:20:11;19.23;71.07
69084;SHT31;56185;48.526;9.044;2022-08-03T03:22:37;19.26;71.25
69084;SHT31;56185;48.526;9.044;2022-08-03T03:25:04;19.10;71.87
69084;SHT31;56185;48.526;9.044;2022-08-03T03:27:30;19.09;71.66
69084;SHT31;56185;48.526;9.044;2022-08-03T03:29:57;18.85;72.35
69084;SHT31;56185;48.526;9.044;2022-08-03T03:32:22;18.92;71.82
69084;SHT31;56185;48.526;9.044;2022-08-03T03:34:48;18.86;72.36
69084;SHT31;56185;48.526;9.044;2022-08-03T03:37:13;18.83;72.40
69084;SHT31;56185;48.526;9.044;2022-08-03T03:39:38;18.75;72.81
69084;SHT31;56185;48.526;9.044;2022-08-03T03:42:04;18.60;73.30
69084;SHT31;56185;48.526;9.044;2022-08-03T03:44:29;18.51;73.76
69084;SHT31;56185;48.526;9.044;2022-08-03T03:46:57;18.51;73.82
69084;SHT31;56185;48.526;9.044;2022-08-03T03:49:23;18.45;74.04
69084;SHT31;56185;48.526;9.044;2022-08-03T03:51:52;18.45;73.92
69084;SHT31;56185;48.526;9.044;2022-08-03T03:54:17;18.44;74.10
69084;SHT31;56185;48.526;9.044;2022-08-03T03:56:42;18.47;73.98
69084;SHT31;56185;48.526;9.044;2022-08-03T03:59:08;18.49;73.88
69084;SHT31;56185;48.526;9.044;2022-08-03T04:01:33;18.51;73.90
69084;SHT31;56185;48.526;9.044;2022-08-03T04:03:58;18.55;73.64
69084;SHT31;56185;48.526;9.044;2022-08-03T04:06:24;18.63;73.16
69084;SHT31;56185;48.526;9.044;2022-08-03T04:08:49;18.51;74.21
69084;SHT31;56185;48.526;9.044;2022-08-03T04:11:23;18.42;74.63
69084;SHT31;56185;48.526;9.044;2022-08-03T04:13:59;18.41;74.43
69084;SHT31;56185;48.526;9.044;2022-08-03T04:16:27;18.39;74.27
69084;SHT31;56185;48.526;9.044;2022-08-03T04:19:02;18.39;74.58
69084;SHT31;56185;48.526;9.044;2022-08-03T04:21:29;18.60;73.82
69084;SHT31;56185;48.526;9.044;2022-08-03T04:24:02;18.60;73.48
69084;SHT31;56185;48.526;9.044;2022-08-03T04:26:30;18.66;73.01
69084;SHT31;56185;48.526;9.044;2022-08-03T04:28:57;18.72;72.90
69084;SHT31;56185;48.526;9.044;2022-08-03T04:31:23;18.70;72.76
69084;SHT31;56185;48.526;9.044;2022-08-03T04:33:51;18.63;72.99
69084;SHT31;56185;48.526;9.044;2022-08-03T04:36:19;18.72;73.01
69084;SHT31;56185;48.526;9.044;2022-08-03T04:39:00;18.63;73.67
69084;SHT31;56185;48.526;9.044;2022-08-03T04:41:27;18.76;72.67
69084;SHT31;56185;48.526;9.044;2022-08-03T04:43:55;18.70;72.99
69084;SHT31;56185;48.526;9.044;2022-08-03T04:46:23;18.77;72.58
69084;SHT31;56185;48.526;9.044;2022-08-03T04:48:50;18.79;72.21
69084;SHT31;56185;48.526;9.044;2022-08-03T04:51:15;18.79;72.10
69084;SHT31;56185;48.526;9.044;2022-08-03T04:53:42;18.96;71.71
69084;SHT31;56185;48.526;9.044;2022-08-03T04:56:08;18.86;71.74
69084;SHT31;56185;48.526;9.044;2022-08-03T04:58:33;18.75;72.40
69084;SHT31;56185;48.526;9.044;2022-08-03T05:00:58;18.77;72.53
69084;SHT31;56185;48.526;9.044;2022-08-03T05:03:24;18.72;72.62
69084;SHT31;56185;48.526;9.044;2022-08-03T05:05:49;18.76;72.49
69084;SHT31;56185;48.526;9.044;2022-08-03T05:08:15;19.03;71.83
69084;SHT31;56185;48.526;9.044;2022-08-03T05:10:40;18.87;71.98
69084;SHT31;56185;48.526;9.044;2022-08-03T05:13:05;19.09;71.45
69084;SHT31;56185;48.526;9.044;2022-08-03T05:15:30;19.04;72.09
69084;SHT31;56185;48.526;9.044;2022-08-03T05:17:55;19.13;71.73
69084;SHT31;56185;48.526;9.044;2022-08-03T05:20:21;19.16;71.66
69084;SHT31;56185;48.526;9.044;2022-08-03T05:22:46;19.24;72.00
69084;SHT31;56185;48.526;9.044;2022-08-03T05:25:11;19.11;72.27
69084;SHT31;56185;48.526;9.044;2022-08-03T05:27:37;19.09;73.01
69084;SHT31;56185;48.526;9.044;2022-08-03T05:30:02;19.26;71.97
69084;SHT31;56185;48.526;9.044;2022-08-03T05:32:28;19.24;71.73
69084;SHT31;56185;48.526;9.044;2022-08-03T05:34:53;19.30;71.15
69084;SHT31;56185;48.526;9.044;2022-08-03T05:37:19;19.39;70.78
69084;SHT31;56185;48.526;9.044;2022-08-03T05:39:44;19.47;71.48
69084;SHT31;56185;48.526;9.044;2022-08-03T05:42:09;19.53;70.91
69084;SHT31;56185;48.526;9.044;2022-08-03T05:44:34;19.50;71.12
69084;SHT31;56185;48.526;9.044;2022-08-03T05:47:00;19.58;70.53
69084;SHT31;56185;48.526;9.044;2022-08-03T05:49:25;19.64;70.30
69084;SHT31;56185;48.526;9.044;2022-08-03T05:51:50;19.65;70.68
69084;SHT31;56185;48.526;9.044;2022-08-03T05:54:15;19.78;70.49
69084;SHT31;56185;48.526;9.044;2022-08-03T05:56:41;19.85;69.72
69084;SHT31;56185;48.526;9.044;2022-08-03T05:59:06;19.89;69.71
69084;SHT31;56185;48.526;9.044;2022-08-03T06:01:31;19.86;69.31
69084;SHT31;56185;48.526;9.044;2022-08-03T06:03:57;19.93;69.33
69084;SHT31;56185;48.526;9.044;2022-08-03T06:06:23;19.95;69.63
69084;SHT31;56185;48.526;9.044;2022-08-03T06:08:48;20.05;68.96
69084;SHT31;56185;48.526;9.044;2022-08-03T06:11:13;20.05;69.38
69084;SHT31;56185;48.526;9.044;2022-08-03T06:13:39;20.08;69.12
69084;SHT31;56185;48.526;9.044;2022-08-03T06:16:05;20.15;69.32
69084;SHT31;56185;48.526;9.044;2022-08-03T06:18:30;20.12;69.81
69084;SHT31;56185;48.526;9.044;2022-08-03T06:20:55;20.19;69.64
69084;SHT31;56185;48.526;9.044;2022-08-03T06:23:21;20.26;68.96
69084;SHT31;56185;48.526;9.044;2022-08-03T06:25:46;20.20;69.05
69084;SHT31;56185;48.526;9.044;2022-08-03T06:28:12;20.30;69.17
69084;SHT31;56185;48.526;9.044;2022-08-03T06:30:38;20.39;69.01
69084;SHT31;56185;48.526;9.044;2022-08-03T06:33:04;20.40;69.20
69084;SHT31;56185;48.526;9.044;2022-08-03T06:35:29;20.39;68.43
69084;SHT31;56185;48.526;9.044;2022-08-03T06:37:54;20.41;68.96
69084;SHT31;56185;48.526;9.044;2022-08-03T06:40:21;20.47;67.85
69084;SHT31;56185;48.526;9.044;2022-08-03T06:42:46;20.63;67.94
69084;SHT31;56185;48.526;9.044;2022-08-03T06:45:12;20.73;68.19
69084;SHT31;56185;48.526;9.044;2022-08-03T06:47:39;20.77;67.31
69084;SHT31;56185;48.526;9.044;2022-08-03T06:50:05;20.80;66.82
69084;SHT31;56185;48.526;9.044;2022-08-03T06:52:31;20.88;66.66
69084;SHT31;56185;48.526;9.044;2022-08-03T06:54:57;20.91;66.12
69084;SHT31;56185;48.526;9.044;2022-08-03T06:57:23;20.96;66.94
69084;SHT31;56185;48.526;9.044;2022-08-03T06:59:48;21.04;67.27
69084;SHT31;56185;48.526;9.044;2022-08-03T07:02:14;21.08;67.52
69084;SHT31;56185;48.526;9.044;2022-08-03T07:04:39;21.22;66.43
69084;SHT31;56185;48.526;9.044;2022-08-03T07:07:04;21.21;65.85
69084;SHT31;56185;48.526;9.044;2022-08-03T07:09:29;21.26;65.46
69084;SHT31;56185;48.526;9.044;2022-08-03T07:11:55;21.33;64.71
69084;SHT31;56185;48.526;9.044;2022-08-03T07:14:20;21.35;64.68
69084;SHT31;56185;48.526;9.044;2022-08-03T07:16:45;21.46;65.04
69084;SHT31;56185;48.526;9.044;2022-08-03T07:19:11;21.52;64.30
69084;SHT31;56185;48.526;9.044;2022-08-03T07:21:36;21.70;63.87
69084;SHT31;56185;48.526;9.044;2022-08-03T07:24:02;21.80;63.01
69084;SHT31;56185;48.526;9.044;2022-08-03T07:26:27;21.89;63.70
69084;SHT31;56185;48.526;9.044;2022-08-03T07:28:52;21.97;63.38
69084;SHT31;56185;48.526;9.044;2022-08-03T07:31:17;22.13;62.77
69084;SHT31;56185;48.526;9.044;2022-08-03T07:33:43;22.13;63.11
69084;SHT31;56185;48.526;9.044;2022-08-03T07:36:08;22.28;62.61
69084;SHT31;56185;48.526;9.044;2022-08-03T07:38:34;22.47;62.35
69084;SHT31;56185;48.526;9.044;2022-08-03T07:40:59;22.59;62.15
69084;SHT31;56185;48.526;9.044;2022-08-03T07:43:25;22.59;61.91
69084;SHT31;56185;48.526;9.044;2022-08-03T07:45:50;22.76;61.21
69084;SHT31;56185;48.526;9.044;2022-08-03T07:48:15;22.79;61.78
69084;SHT31;56185;48.526;9.044;2022-08-03T07:50:41;22.92;61.20
69084;SHT31;56185;48.526;9.044;2022-08-03T07:53:06;23.04;59.59
69084;SHT31;56185;48.526;9.044;2022-08-03T07:55:31;23.09;59.68
69084;SHT31;56185;48.526;9.044;2022-08-03T07:58:10;23.26;58.90
69084;SHT31;56185;48.526;9.044;2022-08-03T08:00:35;23.26;60.12
69084;SHT31;56185;48.526;9.044;2022-08-03T08:03:01;23.50;59.36
69084;SHT31;56185;48.526;9.044;2022-08-03T08:05:26;23.62;59.03
69084;SHT31;56185;48.526;9.044;2022-08-03T08:07:52;23.74;58.72
69084;SHT31;56185;48.526;9.044;2022-08-03T08:10:17;23.68;59.56
69084;SHT31;56185;48.526;9.044;2022-08-03T08:12:43;23.94;58.88
69084;SHT31;56185;48.526;9.044;2022-08-03T08:15:08;24.12;58.08
69084;SHT31;56185;48.526;9.044;2022-08-03T08:17:42;24.18;57.60
69084;SHT31;56185;48.526;9.044;2022-08-03T08:20:09;24.33;57.69
69084;SHT31;56185;48.526;9.044;2022-08-03T08:22:34;24.40;58.03
69084;SHT31;56185;48.526;9.044;2022-08-03T08:24:59;24.60;56.42
69084;SHT31;56185;48.526;9.044;2022-08-03T08:27:25;24.74;55.96
69084;SHT31;56185;48.526;9.044;2022-08-03T08:29:50;24.88;55.05
69084;SHT31;56185;48.526;9.044;2022-08-03T08:32:15;24.91;56.13
69084;SHT31;56185;48.526;9.044;2022-08-03T08:34:41;25.03;55.97
69084;SHT31;56185;48.526;9.044;2022-08-03T08:37:06;25.12;55.34
69084;SHT31;56185;48.526;9.044;2022-08-03T08:39:31;25.31;54.52
69084;SHT31;56185;48.526;9.044;2022-08-03T08:41:57;25.52;52.37
69084;SHT31;56185;48.526;9.044;2022-08-03T08:44:22;25.62;51.18
69084;SHT31;56185;48.526;9.044;2022-08-03T08:46:48;25.83;51.68
69084;SHT31;56185;48.526;9.044;2022-08-03T08:49:16;25.89;51.77
69084;SHT31;56185;48.526;9.044;2022-08-03T08:51:42;25.94;51.22
69084;SHT31;56185;48.526;9.044;2022-08-03T08:54:10;26.13;50.00
69084;SHT31;56185;48.526;9.044;2022-08-03T08:56:35;26.23;49.59
69084;SHT31;56185;48.526;9.044;2022-08-03T08:59:01;26.31;49.64
69084;SHT31;56185;48.526;9.044;2022-08-03T09:01:27;26.38;49.41
69084;SHT31;56185;48.526;9.044;2022-08-03T09:03:52;26.49;49.03
69084;SHT31;56185;48.526;9.044;2022-08-03T09:06:19;26.65;48.01
69084;SHT31;56185;48.526;9.044;2022-08-03T09:08:44;26.67;49.24
69084;SHT31;56185;48.526;9.044;2022-08-03T09:11:10;26.91;48.09
69084;SHT31;56185;48.526;9.044;2022-08-03T09:13:35;26.96;48.69
69084;SHT31;56185;48.526;9.044;2022-08-03T09:16:15;27.22;48.37
69084;SHT31;56185;48.526;9.044;2022-08-03T09:18:43;27.33;47.44
69084;SHT31;56185;48.526;9.044;2022-08-03T09:23:46;27.51;47.46
69084;SHT31;56185;48.526;9.044;2022-08-03T09:26:14;27.74;46.20
69084;SHT31;56185;48.526;9.044;2022-08-03T09:28:43;27.82;44.68
69084;SHT31;56185;48.526;9.044;2022-08-03T09:31:09;27.82;46.89
69084;SHT31;56185;48.526;9.044;2022-08-03T09:33:46;28.05;44.79
69084;SHT31;56185;48.526;9.044;2022-08-03T09:39:08;28.25;45.09
69084;SHT31;56185;48.526;9.044;2022-08-03T09:41:33;28.35;44.86
69084;SHT31;56185;48.526;9.044;2022-08-03T09:43:59;28.40;44.66
69084;SHT31;56185;48.526;9.044;2022-08-03T09:46:24;28.50;44.83
69084;SHT31;56185;48.526;9.044;2022-08-03T09:48:49;28.64;42.46
69084;SHT31;56185;48.526;9.044;2022-08-03T09:51:15;28.63;42.66
69084;SHT31;56185;48.526;9.044;2022-08-03T09:53:44;28.76;43.39
69084;SHT31;56185;48.526;9.044;2022-08-03T09:56:09;28.91;42.26
69084;SHT31;56185;48.526;9.044;2022-08-03T09:58:44;29.06;41.32
69084;SHT31;56185;48.526;9.044;2022-08-03T10:01:09;29.22;42.29
69084;SHT31;56185;48.526;9.044;2022-08-03T10:03:36;29.32;40.37
69084;SHT31;56185;48.526;9.044;2022-08-03T10:06:16;29.45;39.02
69084;SHT31;56185;48.526;9.044;2022-08-03T10:08:42;29.47;38.62
69084;SHT31;56185;48.526;9.044;2022-08-03T10:11:07;29.48;39.28
69084;SHT31;56185;48.526;9.044;2022-08-03T10:13:32;29.48;40.01
69084;SHT31;56185;48.526;9.044;2022-08-03T10:15:58;29.55;39.19
69084;SHT31;56185;48.526;9.044;2022-08-03T10:18:23;29.57;39.07
69084;SHT31;56185;48.526;9.044;2022-08-03T10:20:51;29.69;36.85
69084;SHT31;56185;48.526;9.044;2022-08-03T10:23:20;29.79;39.09
69084;SHT31;56185;48.526;9.044;2022-08-03T10:25:48;29.83;39.93
69084;SHT31;56185;48.526;9.044;2022-08-03T10:28:17;29.89;39.09
69084;SHT31;56185;48.526;9.044;2022-08-03T10:30:47;30.07;40.35
69084;SHT31;56185;48.526;9.044;2022-08-03T10:33:27;30.20;39.48
69084;SHT31;56185;48.526;9.044;2022-08-03T10:35:56;30.28;38.86
69084;SHT31;56185;48.526;9.044;2022-08-03T10:38:31;30.45;38.22
69084;SHT31;56185;48.526;9.044;2022-08-03T10:41:00;30.51;38.19
69084;SHT31;56185;48.526;9.044;2022-08-03T10:43:45;30.57;37.75
69084;SHT31;56185;48.526;9.044;2022-08-03T10:46:13;30.68;37.40
69084;SHT31;56185;48.526;9.044;2022-08-03T10:48:39;30.68;36.32
69084;SHT31;56185;48.526;9.044;2022-08-03T10:51:05;30.78;37.11
69084;SHT31;56185;48.526;9.044;2022-08-03T10:53:38;31.11;35.72
69084;SHT31;56185;48.526;9.044;2022-08-03T10:56:05;31.19;37.32
69084;SHT31;56185;48.526;9.044;2022-08-03T10:58:51;31.36;36.92
69084;SHT31;56185;48.526;9.044;2022-08-03T11:01:18;31.43;35.35
69084;SHT31;56185;48.526;9.044;2022-08-03T11:06:23;31.42;34.77
69084;SHT31;56185;48.526;9.044;2022-08-03T11:11:37;31.51;35.22
69084;SHT31;56185;48.526;9.044;2022-08-03T11:14:08;31.63;35.04
69084;SHT31;56185;48.526;9.044;2022-08-03T11:16:45;31.57;34.00
69084;SHT31;56185;48.526;9.044;2022-08-03T11:19:19;31.54;34.25
69084;SHT31;56185;48.526;9.044;2022-08-03T11:30:06;31.76;35.00
69084;SHT31;56185;48.526;9.044;2022-08-03T11:37:31;31.87;34.12
69084;SHT31;56185;48.526;9.044;2022-08-03T11:39:56;32.03;34.55
69084;SHT31;56185;48.526;9.044;2022-08-03T11:44:48;32.25;33.89
69084;SHT31;56185;48.526;9.044;2022-08-03T11:47:14;32.25;33.94
69084;SHT31;56185;48.526;9.044;2022-08-03T11:49:40;32.17;33.74
69084;SHT31;56185;48.526;9.044;2022-08-03T11:52:06;32.38;35.04
69084;SHT31;56185;48.526;9.044;2022-08-03T11:54:31;32.48;33.91
69084;SHT31;56185;48.526;9.044;2022-08-03T11:56:56;32.46;33.68
69084;SHT31;56185;48.526;9.044;2022-08-03T11:59:31;32.53;34.16
69084;SHT31;56185;48.526;9.044;2022-08-03T12:02:05;32.69;33.75
69084;SHT31;56185;48.526;9.044;2022-08-03T12:04:31;32.62;33.52
69084;SHT31;56185;48.526;9.044;2022-08-03T12:06:57;32.62;33.96
69084;SHT31;56185;48.526;9.044;2022-08-03T12:09:23;32.72;33.90
69084;SHT31;56185;48.526;9.044;2022-08-03T12:11:49;32.79;34.98
69084;SHT31;56185;48.526;9.044;2022-08-03T12:14:20;32.90;33.61
69084;SHT31;56185;48.526;9.044;2022-08-03T12:16:48;32.96;33.38
69084;SHT31;56185;48.526;9.044;2022-08-03T12:19:14;33.10;33.12
69084;SHT31;56185;48.526;9.044;2022-08-03T12:21:46;33.20;33.57
69084;SHT31;56185;48.526;9.044;2022-08-03T12:24:12;33.41;34.34
69084;SHT31;56185;48.526;9.044;2022-08-03T12:26:49;33.54;32.49
69084;SHT31;56185;48.526;9.044;2022-08-03T12:29:19;33.61;33.00
69084;SHT31;56185;48.526;9.044;2022-08-03T12:31:44;33.72;32.59
69084;SHT31;56185;48.526;9.044;2022-08-03T12:34:09;33.88;31.67
69084;SHT31;56185;48.526;9.044;2022-08-03T12:36:35;34.05;32.07
69084;SHT31;56185;48.526;9.044;2022-08-03T12:39:06;34.23;32.61
69084;SHT31;56185;48.526;9.044;2022-08-03T12:41:33;34.40;30.95
69084;SHT31;56185;48.526;9.044;2022-08-03T12:43:59;34.47;31.24
69084;SHT31;56185;48.526;9.044;2022-08-03T12:46:30;34.46;31.18
69084;SHT31;56185;48.526;9.044;2022-08-03T12:49:06;34.53;30.26
69084;SHT31;56185;48.526;9.044;2022-08-03T12:54:02;34.39;30.34
69084;SHT31;56185;48.526;9.044;2022-08-03T12:56:27;34.49;31.35
69084;SHT31;56185;48.526;9.044;2022-08-03T12:58:53;34.52;30.90
69084;SHT31;56185;48.526;9.044;2022-08-03T13:01:19;34.67;30.15
69084;SHT31;56185;48.526;9.044;2022-08-03T13:03:46;34.76;30.29
69084;SHT31;56185;48.526;9.044;2022-08-03T13:06:13;34.80;30.55
69084;SHT31;56185;48.526;9.044;2022-08-03T13:08:39;34.76;30.37
69084;SHT31;56185;48.526;9.044;2022-08-03T13:11:24;34.66;30.71
69084;SHT31;56185;48.526;9.044;2022-08-03T13:13:51;34.90;30.61
69084;SHT31;56185;48.526;9.044;2022-08-03T13:16:17;35.00;30.07
69084;SHT31;56185;48.526;9.044;2022-08-03T13:18:51;35.00;30.19
69084;SHT31;56185;48.526;9.044;2022-08-03T13:21:19;35.07;29.99
69084;SHT31;56185;48.526;9.044;2022-08-03T13:23:45;35.10;29.94
69084;SHT31;56185;48.526;9.044;2022-08-03T13:26:11;35.17;29.45
69084;SHT31;56185;48.526;9.044;2022-08-03T13:28:37;35.11;29.98
69084;SHT31;56185;48.526;9.044;2022-08-03T13:31:03;35.21;29.28
69084;SHT31;56185;48.526;9.044;2022-08-03T13:33:29;35.19;29.61
69084;SHT31;56185;48.526;9.044;2022-08-03T13:35:54;35.30;29.60
69084;SHT31;56185;48.526;9.044;2022-08-03T13:38:19;35.15;28.95
69084;SHT31;56185;48.526;9.044;2022-08-03T13:40:45;35.30;28.76
69084;SHT31;56185;48.526;9.044;2022-08-03T13:43:10;35.25;28.70
69084;SHT31;56185;48.526;9.044;2022-08-03T13:45:35;35.39;29.31
69084;SHT31;56185;48.526;9.044;2022-08-03T13:48:01;35.38;28.51
69084;SHT31;56185;48.526;9.044;2022-08-03T13:50:26;35.45;29.17
69084;SHT31;56185;48.526;9.044;2022-08-03T13:52:52;35.46;28.72
69084;SHT31;56185;48.526;9.044;2022-08-03T13:55:17;35.62;28.45
69084;SHT31;56185;48.526;9.044;2022-08-03T13:57:42;35.66;27.96
69084;SHT31;56185;48.526;9.044;2022-08-03T14:00:08;35.66;28.35
69084;SHT31;56185;48.526;9.044;2022-08-03T14:02:34;35.73;28.25
69084;SHT31;56185;48.526;9.044;2022-08-03T14:04:59;35.78;27.93
69084;SHT31;56185;48.526;9.044;2022-08-03T14:07:24;35.88;27.73
69084;SHT31;56185;48.526;9.044;2022-08-03T14:09:49;35.89;27.97
69084;SHT31;56185;48.526;9.044;2022-08-03T14:12:15;35.83;27.68
69084;SHT31;56185;48.526;9.044;2022-08-03T14:14:40;35.92;28.26
69084;SHT31;56185;48.526;9.044;2022-08-03T14:17:05;35.93;27.21
69084;SHT31;56185;48.526;9.044;2022-08-03T14:19:30;35.86;28.13
69084;SHT31;56185;48.526;9.044;2022-08-03T14:21:56;35.86;28.13
69084;SHT31;56185;48.526;9.044;2022-08-03T14:24:22;35.76;27.24
69084;SHT31;56185;48.526;9.044;2022-08-03T14:26:47;35.83;27.90
69084;SHT31;56185;48.526;9.044;2022-08-03T14:29:12;35.81;27.47
69084;SHT31;56185;48.526;9.044;2022-08-03T14:31:38;35.85;27.13
69084;SHT31;56185;48.526;9.044;2022-08-03T14:34:03;35.89;27.69
69084;SHT31;56185;48.526;9.044;2022-08-03T14:36:28;35.96;27.88
69084;SHT31;56185;48.526;9.044;2022-08-03T14:38:54;35.68;28.50
69084;SHT31;56185;48.526;9.044;2022-08-03T14:41:19;35.92;28.14
69084;SHT31;56185;48.526;9.044;2022-08-03T14:43:44;35.85;27.71
69084;SHT31;56185;48.526;9.044;2022-08-03T14:46:10;35.82;27.37
69084;SHT31;56185;48.526;9.044;2022-08-03T14:48:35;35.96;27.58
69084;SHT31;56185;48.526;9.044;2022-08-03T14:51:00;35.97;28.11
69084;SHT31;56185;48.526;9.044;2022-08-03T14:53:25;36.02;27.86
69084;SHT31;56185;48.526;9.044;2022-08-03T14:55:51;36.09;27.45
69084;SHT31;56185;48.526;9.044;2022-08-03T14:58:21;36.22;27.59
69084;SHT31;56185;48.526;9.044;2022-08-03T15:00:47;36.22;27.27
69084;SHT31;56185;48.526;9.044;2022-08-03T15:03:12;36.04;26.77
69084;SHT31;56185;48.526;9.044;2022-08-03T15:05:37;35.96;27.26
69084;SHT31;56185;48.526;9.044;2022-08-03T15:08:03;35.99;27.50
69084;SHT31;56185;48.526;9.044;2022-08-03T15:10:28;36.09;27.57
69084;SHT31;56185;48.526;9.044;2022-08-03T15:12:53;36.12;27.43
69084;SHT31;56185;48.526;9.044;2022-08-03T15:15:19;36.10;27.77
69084;SHT31;56185;48.526;9.044;2022-08-03T15:17:44;35.97;27.41
69084;SHT31;56185;48.526;9.044;2022-08-03T15:20:10;35.94;27.15
69084;SHT31;56185;48.526;9.044;2022-08-03T15:22:38;35.55;27.76
69084;SHT31;56185;48.526;9.044;2022-08-03T15:25:04;35.66;27.66
69084;SHT31;56185;48.526;9.044;2022-08-03T15:27:30;35.69;28.40
69084;SHT31;56185;48.526;9.044;2022-08-03T15:29:55;35.82;27.90
69084;SHT31;56185;48.526;9.044;2022-08-03T15:32:20;35.86;28.17
69084;SHT31;56185;48.526;9.044;2022-08-03T15:34:46;35.88;27.73
69084;SHT31;56185;48.526;9.044;2022-08-03T15:37:11;35.85;27.87
69084;SHT31;56185;48.526;9.044;2022-08-03T15:39:36;35.79;27.54
69084;SHT31;56185;48.526;9.044;2022-08-03T15:42:01;35.76;28.24
69084;SHT31;56185;48.526;9.044;2022-08-03T15:44:27;35.76;29.06
69084;SHT31;56185;48.526;9.044;2022-08-03T15:46:52;35.61;28.53
69084;SHT31;56185;48.526;9.044;2022-08-03T15:49:17;35.49;28.82
69084;SHT31;56185;48.526;9.044;2022-08-03T15:51:43;35.28;28.94
69084;SHT31;56185;48.526;9.044;2022-08-03T15:54:08;35.15;29.24
69084;SHT31;56185;48.526;9.044;2022-08-03T15:56:33;35.04;29.23
69084;SHT31;56185;48.526;9.044;2022-08-03T15:58:58;34.98;29.46
69084;SHT31;56185;48.526;9.044;2022-08-03T16:01:24;34.95;29.65
69084;SHT31;56185;48.526;9.044;2022-08-03T16:03:50;34.86;29.43
69084;SHT31;56185;48.526;9.044;2022-08-03T16:06:16;34.83;29.90